Select your language:
24 hrs Sittard   Hier könnte ihre Werbung stehen!  
  Cat.:   Nazione:   Velocità:   Tipo della categoria:   
Data: 21.-22.02.2026 Send Link
Manifestazione: 5° El Reto del Indio (PAN) Maggiori dettagli sulla corsa.
Distanza: 100km cross, trail Classifica tutti i tempi per questa corsa.
arrivati: 37 (26 M, 11 F) Multiple Finishers.
Parte della classifica: No
Lista dei risultati di: link (Fonte al momento dell'acquisizione.)
Inviato da: Chang, Wenhui     02.05.2026 16:49
 
37 risultati della ricerca 
Pos. Prestazione Cognome, nome Società Naz. Anno M/F Pos. sesso Cat. Pos. Cat. Velocità km/h Prestazione corretto per età
1 14:52:37 h   Alvarado, Gabriel   PAN  2000 M 1 M23  1 6.722 14:52:37 h
2 15:36:53 h   Mendoza, Carmen   PAN  1985 F 1 W40  1 6.404 15:14:36 h
3 16:23:15 h   Perez Martinez, Daniel   ECU    M 2 #NA    6.102 16:23:15 h
4 16:31:43 h   Guillen, Andrews   PAN    M 3 #NA    6.050 16:31:43 h
5 16:49:29 h   de la Rosa Lasa, David Enrique   PAN  1999 M 4 M23  2 5.944 16:49:29 h
6 17:09:27 h   Vila, Miguel   COL  1979 M 5 M45  1 5.828 15:50:36 h
7 17:14:27 h   Reed, Michael   USA  2000 M 6 M23  3 5.800 17:14:27 h
8 17:15:34 h   Rodriguez Meneses, Pedro Luis   PAN  1994 M 7 M23  4 5.794 17:15:34 h
9 18:29:47 h   Agrazal, Alberto   PAN  1991 M 8 M23  5 5.406 18:26:34 h
10 18:37:53 h   Villarreal, Carmen   PAN  1983 F 2 W40  2 5.367 17:57:05 h
10 18:37:53 h   Barria, Jose   PAN  1976 M 9 M45  2 5.367 16:46:06 h
12 18:49:32 h   Delgado, Jose   VEN  1987 M 10 M35  1 5.312 18:29:13 h
13 19:09:34 h   Gonzalez Audelo, Carlos Ernesto   MEX  1987 M 11 M35  2 5.219 18:48:53 h
14 19:10:50 h   Herrera, Yann   PAN    F 3 #NA    5.214 19:10:50 h
15 19:13:16 h   Londono Salinas, Alexandra   PAN  1989 F 4 W35  1 5.203 19:01:58 h
16 20:37:02 h   Pinzon, Javier   PAN    M 12 #NA    4.850 20:37:02 h
17 20:50:21 h   Islas, Omar   PAN  1997 M 13 M23  6 4.799 20:50:21 h
18 21:18:42 h   Pitti Ortiz, Maximo   PAN  1977 M 14 M45  3 4.692 19:20:49 h
19 21:30:42 h   Madrid, Sileska   PAN  1979 F 5 W45  1 4.649 20:00:29 h
19 21:30:42 h   Rincon, Christopher   PAN    M 15 #NA    4.649 21:30:42 h
21 21:40:17 h   Lorenzo Avila, Juan David   PAN  1990 M 16 M35  3 4.614 21:33:08 h
22 22:11:14 h   Berbey Jurado, Hector Manuel   PAN    M 17 #NA    4.507 22:11:14 h
23 22:11:54 h   Reina, Glarencia   PAN  1974 F 6 W50  1 4.505 19:26:53 h
24 22:34:52 h   Bradley, Laura   USA  1985 F 7 W40  3 4.428 22:02:38 h
24 22:34:52 h   Figueroa, Alexander   PAN  1997 M 18 M23  7 4.428 22:34:52 h
26 22:35:15 h   Carcamo, Jonathan   PAN  2000 M 19 M23  8 4.427 22:35:15 h
27 22:43:40 h   Espino, Keila   PAN  1984 F 8 W40  4 4.400 22:03:02 h
28 22:58:13 h   Cabassa, Pia Gabriela   PAN  1993 F 9 W23  1 4.353 22:58:05 h
29 23:02:05 h   Perez, Khadine   PAN  1980 F 10 W45  2 4.341 21:38:29 h
30 23:32:58 h   Garcia Dominguez, Felipe   PAN  1971 M 20 M50  1 4.246 20:16:43 h
31 23:43:15 h   Torres Cerrato, Omar   HON  1981 M 21 M40  1 4.216 22:16:18 h
32 23:54:20 h   Munoz Prados, Yaslin Michell   PAN  1990 F 11 W35  2 4.183 23:48:45 h
33 23:56:17 h   Vargas, Adolfo   PAN    M 22 #NA    4.177 23:56:17 h
34 24:08:51 h   Estrada, Armando   PAN  1974 M 23 M50  2 4.141 21:21:31 h
35 24:30:27 h   Jaen, Victor   PAN  1988 M 24 M35  4 4.080 24:11:21 h
36 24:47:55 h   Zamora, Wuilser   VEN  1980 M 25 M45  4 4.032 23:05:24 h
37 24:53:48 h   Lehnert, Andreas   PAN    M 26 #NA    4.017 24:53:48 h